Terminal Aerodrome Forecast
Issued by NWS

Home | Current Version | Previous Version | Text Only | Print | Product List | Glossary On
Versions: 1 2 3 4 5 6 7 8 9 10 11 12 13 14 15 16 17 18 19 20 21
000
FTUS41 KPBZ 291100
TAFDUJ
TAF
KDUJ 291129Z 2912/3012 11009KT P6SM BKN120
     FM291800 17011G18KT 3SM -FZRASN OVC020
     FM292000 18013G21KT 2SM -SHRASN BR OVC008
     FM300200 25011G20KT 2SM -SHSN OVC008
     FM300700 29011G19KT 2SM -SHSN OVC004=

USA.gov is the U.S. government's official web portal to all federal, state and local government web resources and services.